Airfield :
LOGIN :

Register | Disclaimer

   EN    FR    IT 

 










Legend :    VFR   Marginal VFR   IFR   Intensive IFR   Very Intensive IFR
Visi :
Ceiling :
>= 8 km
>= 3000ft
5 to 8 km
1000 to 3000 ft
1500m to 5 km
500 to 1000 ft
800 to 1500m
200 to 500 ft
< 800m
< 200 ft
Symbols :   Thunderstorms  Fog  Heavy snow  Heavy precipitations  Wind > 20 kt
SIGMETs :     Misc.  Thunderstorms  Icing  Turbulence  Mountain Waves  Volcanic Ashes






- Airport Elevation : 794 ft


LKCV - Čáslav Air Base

CURRENT METAR :
  • 011330Z 02005KT 340V050 CAVOK 03/M00 Q1024 NOSIG RMK BLU BLU

EXPIRED METARs :
  • 011300Z 05005KT 020V080 CAVOK 03/M00 Q1024 NOSIG RMK BLU BLU
  • 011230Z 02004KT 340V050 9000 NSC 03/M00 Q1024 NOSIG RMK BLU BLU
  • 011200Z 36003KT 320V050 9000 NSC 03/M01 Q1024 NOSIG RMK BLU BLU
  • 011130Z 01004KT 320V060 8000 NSC 02/M00 Q1024 NOSIG RMK BLU BLU
  • 011100Z 01004KT 330V040 7000 NSC 02/M00 Q1024 NOSIG RMK WHT WHT
  • 011030Z 00000KT 7000 NSC 02/M01 Q1025 NOSIG RMK WHT WHT

TAF TAF LKCV
Valid from the 01 at 12:00 until the 02 at 12:00 UTC


011100Z 0112/0212 06004KT 7000 NSC
PROB40
TEMPO 0120/0207 4000 BR
BECMG 0208/0210 CAVOK



MET'MAP, your aeronautical weather chart ! - Copyright ORBIFLY December 2007 - Disclaimer

ORBIFLY MET'MAP TEAM :

Programming & Development : Alexandra Zaïnal
Original concept : Baudouin d'Aumeries
Technical & hardware support : Manuel Goepfert
Assistance : Marc-Olivier Méhu




SOURCES & CREDITS :

   NOAA